Terminal Aerodrome Forecast
Issued by NWS Newport/Morehead City, NC

Home | Current Version | Previous Version | Text Only | Print | Product List | Glossary On
Versions: 1 2 3 4 5 6 7 8 9 10 11 12 13 14 15
000
FTUS42 KMHX 240900 AAB
TAFEWN
TAF AMD
KEWN 240906Z 2409/2506 21009KT P6SM VCSH SCT008 OVC050
     FM241400 20015G20KT P6SM SCT007 BKN025
     FM242200 19008KT 5SM BR OVC010=

USA.gov is the U.S. government's official web portal to all federal, state and local government web resources and services.